Time;durP1;ratioP1;P1;durP2;ratioP2;P2;SDS_P1;SDS_P2;PMS_P1;PMS_P2;Temp;Humidity;BMP_temperature;BMP_pressure;BME280_temperature;BME280_humidity;BME280_pressure;Samples;Min_cycle;Max_cycle;Signal;HPM_P1;HPM_P2
2023/06/22 00:02:18;;;;;;;36.53;23.52;;;19.80;99.90;;;;;;5076454;28;20186;-86
2023/06/22 00:04:44;;;;;;;32.17;22.80;;;19.80;99.90;;;;;;5102238;27;20803;-85
2023/06/22 00:07:10;;;;;;;31.98;23.00;;;19.80;99.90;;;;;;5088242;28;20273;-86
2023/06/22 00:09:36;;;;;;;34.53;23.67;;;19.80;99.90;;;;;;5084015;28;20707;-86
2023/06/22 00:12:02;;;;;;;32.72;23.23;;;19.80;99.90;;;;;;5104036;28;20218;-86
2023/06/22 00:14:28;;;;;;;30.90;23.10;;;19.90;99.90;;;;;;5096552;27;20185;-86
2023/06/22 00:16:58;;;;;;;36.55;23.55;;;19.90;99.90;;;;;;5102038;28;20645;-86
2023/06/22 00:19:25;;;;;;;31.65;24.10;;;19.90;99.90;;;;;;5081442;28;20173;-86
2023/06/22 00:21:54;;;;;;;32.38;23.02;;;19.90;99.90;;;;;;5114063;28;20217;-86
2023/06/22 00:24:20;;;;;;;31.08;23.65;;;19.90;99.90;;;;;;5105135;27;20185;-86
2023/06/22 00:26:48;;;;;;;35.63;23.55;;;19.90;99.90;;;;;;5112073;27;20204;-85
2023/06/22 00:29:15;;;;;;;32.00;23.17;;;19.90;99.90;;;;;;5100126;28;20192;-85
2023/06/22 00:31:41;;;;;;;35.17;24.75;;;19.90;99.90;;;;;;5096092;28;20578;-85
2023/06/22 00:34:08;;;;;;;31.58;22.88;;;19.90;99.90;;;;;;5095346;28;20184;-85
2023/06/22 00:36:34;;;;;;;33.78;22.27;;;19.90;99.90;;;;;;5099458;27;20170;-85
2023/06/22 00:39:00;;;;;;;30.83;22.05;;;19.80;99.90;;;;;;5111700;27;20240;-85
2023/06/22 00:41:28;;;;;;;32.80;23.98;;;19.80;99.90;;;;;;5096248;28;20236;-85
2023/06/22 00:43:54;;;;;;;32.17;22.25;;;19.80;99.90;;;;;;5096372;28;20192;-85
2023/06/22 00:46:22;;;;;;;31.85;21.40;;;19.80;99.90;;;;;;5098421;28;20680;-85
2023/06/22 00:48:50;;;;;;;35.08;22.90;;;19.80;99.90;;;;;;5092717;28;20178;-85
2023/06/22 00:51:16;;;;;;;36.42;23.30;;;19.80;99.90;;;;;;5092363;28;20174;-85
2023/06/22 00:53:43;;;;;;;36.28;23.52;;;19.80;99.90;;;;;;5111202;28;20169;-86
2023/06/22 00:56:12;;;;;;;36.58;24.67;;;19.80;99.90;;;;;;5092272;28;20195;-86
2023/06/22 00:58:41;;;;;;;32.70;22.80;;;19.70;99.90;;;;;;5103999;27;20229;-87
2023/06/22 01:01:07;;;;;;;35.65;24.05;;;19.70;99.90;;;;;;5099420;28;20193;-85
2023/06/22 01:03:33;;;;;;;34.70;24.08;;;19.70;99.90;;;;;;5075512;28;20265;-85
2023/06/22 01:06:09;;;;;;;36.17;26.00;;;19.70;99.90;;;;;;5091384;27;20292;-85
2023/06/22 01:08:42;;;;;;;36.30;26.13;;;19.70;99.90;;;;;;5106594;27;20233;-85
2023/06/22 01:11:25;;;;;;;41.47;27.42;;;19.70;99.90;;;;;;5107020;28;20193;-85
2023/06/22 01:14:25;;;;;;;38.35;25.98;;;19.70;99.90;;;;;;5095109;28;20170;-85
2023/06/22 01:16:54;;;;;;;36.30;26.27;;;19.70;99.90;;;;;;5109600;28;20276;-86
2023/06/22 01:19:32;;;;;;;35.85;25.67;;;19.70;99.90;;;;;;5081715;28;20205;-85
2023/06/22 01:22:00;;;;;;;37.70;24.80;;;19.70;99.90;;;;;;5103021;28;20176;-86
2023/06/22 01:25:01;;;;;;;39.53;24.75;;;19.60;99.90;;;;;;5075923;28;20651;-85
2023/06/22 01:27:45;;;;;;;36.55;25.98;;;19.60;99.90;;;;;;5096346;27;20643;-85
2023/06/22 01:30:13;;;;;;;34.70;26.73;;;19.40;99.90;;;;;;5102774;27;20178;-85
2023/06/22 01:32:41;;;;;;;38.47;26.77;;;19.40;99.90;;;;;;5092179;28;20174;-85
2023/06/22 01:35:09;;;;;;;37.55;26.92;;;19.20;99.90;;;;;;5106294;27;20173;-85
2023/06/22 01:37:37;;;;;;;39.10;25.83;;;19.20;99.90;;;;;;5094233;28;20296;-85
2023/06/22 01:40:05;;;;;;;39.35;27.35;;;19.10;99.90;;;;;;5111569;28;20251;-86
2023/06/22 01:42:32;;;;;;;38.60;28.30;;;19.00;99.90;;;;;;5108269;28;20177;-85
2023/06/22 01:44:59;;;;;;;39.80;28.65;;;18.90;99.90;;;;;;5074354;28;20190;-85
2023/06/22 01:47:27;;;;;;;42.35;30.48;;;18.80;99.90;;;;;;5107749;27;20186;-85
2023/06/22 01:49:53;;;;;;;41.00;30.60;;;18.70;99.90;;;;;;5106394;28;20189;-85
2023/06/22 01:52:23;;;;;;;47.22;31.60;;;18.70;99.90;;;;;;5111329;28;20204;-86
2023/06/22 01:54:48;;;;;;;39.60;30.00;;;18.70;99.90;;;;;;5091287;28;20185;-86
2023/06/22 01:57:14;;;;;;;40.30;30.77;;;18.60;99.90;;;;;;5068503;28;20497;-85
2023/06/22 01:59:48;;;;;;;45.83;31.52;;;18.60;99.90;;;;;;5103590;28;20190;-85
2023/06/22 02:02:19;;;;;;;43.30;31.02;;;18.60;99.90;;;;;;5086495;28;20181;-85
2023/06/22 02:04:55;;;;;;;47.20;33.15;;;18.50;99.90;;;;;;5095394;28;20174;-86
2023/06/22 02:07:23;;;;;;;48.53;33.95;;;18.40;99.90;;;;;;5102808;27;20265;-85
2023/06/22 02:09:52;;;;;;;47.55;34.10;;;18.40;99.90;;;;;;5107460;28;20177;-85
2023/06/22 02:12:23;;;;;;;42.65;33.42;;;18.40;99.90;;;;;;5111460;28;20189;-85
2023/06/22 02:14:51;;;;;;;49.45;34.90;;;18.30;99.90;;;;;;5104244;28;20608;-88
2023/06/22 02:17:18;;;;;;;50.30;35.65;;;18.30;99.90;;;;;;5102712;28;20196;-85
2023/06/22 02:19:44;;;;;;;44.95;33.42;;;18.30;99.90;;;;;;5079689;28;20193;-85
2023/06/22 02:22:10;;;;;;;48.95;34.83;;;18.20;99.90;;;;;;5091290;28;20946;-85
2023/06/22 02:24:36;;;;;;;45.83;33.30;;;18.20;99.90;;;;;;5103182;28;20185;-85
2023/06/22 02:27:02;;;;;;;48.92;35.42;;;18.30;99.90;;;;;;5093168;28;20272;-85
2023/06/22 02:29:31;;;;;;;51.00;35.30;;;18.30;99.90;;;;;;5101725;27;20175;-85
2023/06/22 02:31:57;;;;;;;49.70;35.78;;;18.30;99.90;;;;;;5074385;28;20367;-85
2023/06/22 02:34:23;;;;;;;56.00;36.08;;;18.30;99.90;;;;;;5064038;28;20209;-85
2023/06/22 02:36:51;;;;;;;50.33;36.45;;;18.30;99.90;;;;;;5093043;28;20257;-85
2023/06/22 02:39:22;;;;;;;48.30;35.40;;;18.30;99.90;;;;;;5110652;28;20196;-86
2023/06/22 02:41:50;;;;;;;48.00;35.75;;;18.30;99.90;;;;;;5111221;28;20727;-86
2023/06/22 02:44:16;;;;;;;50.13;36.78;;;18.30;99.90;;;;;;5096857;28;20612;-85
2023/06/22 02:46:42;;;;;;;53.05;36.70;;;18.20;99.90;;;;;;5088654;28;20193;-86
2023/06/22 02:49:08;;;;;;;50.45;37.17;;;18.30;99.90;;;;;;5090391;28;20186;-86
2023/06/22 02:51:34;;;;;;;52.15;37.65;;;18.30;99.90;;;;;;5091033;28;20188;-85
2023/06/22 02:54:01;;;;;;;55.15;38.10;;;18.30;99.90;;;;;;5090459;28;20186;-85
2023/06/22 02:56:30;;;;;;;54.75;37.15;;;18.30;99.90;;;;;;5096747;28;20618;-87
2023/06/22 02:59:02;;;;;;;56.22;38.35;;;18.30;99.90;;;;;;5110419;28;20219;-85
2023/06/22 03:01:39;;;;;;;54.17;37.40;;;18.30;99.90;;;;;;5087726;28;20190;-86
2023/06/22 03:04:07;;;;;;;55.88;36.58;;;18.30;99.90;;;;;;5092811;28;20189;-85
2023/06/22 03:06:33;;;;;;;50.15;36.85;;;18.30;99.90;;;;;;5091995;28;20223;-86
2023/06/22 03:09:01;;;;;;;54.22;37.88;;;18.40;99.90;;;;;;5093548;28;20190;-86
2023/06/22 03:11:28;;;;;;;54.30;38.80;;;18.30;99.90;;;;;;5108945;28;20209;-86
2023/06/22 03:13:54;;;;;;;52.53;37.20;;;18.30;99.90;;;;;;5090294;28;20265;-85
2023/06/22 03:16:20;;;;;;;56.20;36.95;;;18.30;99.90;;;;;;5091795;28;20178;-86
2023/06/22 03:18:47;;;;;;;53.17;37.05;;;18.30;99.90;;;;;;5100676;28;20217;-85
2023/06/22 03:21:15;;;;;;;55.67;37.92;;;18.30;99.90;;;;;;5110781;28;20629;-86
2023/06/22 03:23:41;;;;;;;51.05;35.60;;;18.30;99.90;;;;;;5110085;28;20702;-86
2023/06/22 03:26:08;;;;;;;49.47;36.10;;;18.20;99.90;;;;;;5086019;28;20242;-86
2023/06/22 03:28:34;;;;;;;56.10;38.33;;;18.20;99.90;;;;;;5081214;28;20182;-86
2023/06/22 03:31:01;;;;;;;57.42;40.00;;;18.20;99.90;;;;;;5073541;28;20284;-85
2023/06/22 03:33:28;;;;;;;55.90;40.10;;;18.10;99.90;;;;;;5110303;28;20185;-86
2023/06/22 03:35:57;;;;;;;59.22;40.17;;;18.00;99.90;;;;;;5088367;28;20269;-85
2023/06/22 03:38:23;;;;;;;62.20;42.42;;;18.00;99.90;;;;;;5092443;28;20202;-86
2023/06/22 03:40:52;;;;;;;64.53;41.75;;;18.00;99.90;;;;;;5086055;28;20225;-85
2023/06/22 03:43:19;;;;;;;64.38;41.60;;;18.00;99.90;;;;;;5109374;28;20250;-86
2023/06/22 03:45:46;;;;;;;57.30;39.15;;;18.00;99.90;;;;;;5074438;28;20287;-86
2023/06/22 03:48:12;;;;;;;55.80;40.55;;;17.90;99.90;;;;;;5082470;28;20202;-85
2023/06/22 03:50:38;;;;;;;58.55;40.45;;;17.90;99.90;;;;;;5090472;28;20232;-86
2023/06/22 03:53:04;;;;;;;59.03;40.55;;;17.90;99.90;;;;;;5091298;28;20205;-86
2023/06/22 03:55:30;;;;;;;59.17;40.15;;;17.90;99.90;;;;;;5089975;28;20641;-86
2023/06/22 03:57:57;;;;;;;60.65;39.95;;;18.00;99.90;;;;;;5083206;28;20201;-86
2023/06/22 04:00:25;;;;;;;61.97;41.65;;;18.00;99.90;;;;;;5091492;28;20190;-85
2023/06/22 04:02:51;;;;;;;56.00;39.90;;;18.00;99.90;;;;;;5111520;28;20170;-84
2023/06/22 04:05:19;;;;;;;62.75;39.67;;;18.00;99.90;;;;;;5092998;28;20184;-85
2023/06/22 04:07:45;;;;;;;56.60;39.70;;;18.10;99.90;;;;;;5104112;27;20239;-86
2023/06/22 04:10:11;;;;;;;61.00;40.70;;;18.00;99.90;;;;;;5088389;28;20190;-86
2023/06/22 04:12:37;;;;;;;54.67;39.08;;;18.10;99.90;;;;;;5093510;28;20254;-86
2023/06/22 04:15:03;;;;;;;59.70;41.10;;;18.10;99.90;;;;;;5106191;28;20177;-86
2023/06/22 04:17:29;;;;;;;60.60;40.53;;;18.10;99.90;;;;;;5096467;28;20644;-86
2023/06/22 04:19:55;;;;;;;61.25;41.17;;;18.10;99.90;;;;;;5096436;28;20181;-87
2023/06/22 04:22:20;;;;;;;59.47;40.97;;;18.10;99.90;;;;;;5079543;28;20181;-87
2023/06/22 04:24:46;;;;;;;64.70;42.30;;;18.10;99.90;;;;;;5094459;28;20212;-86
2023/06/22 04:27:12;;;;;;;63.42;43.72;;;18.10;99.90;;;;;;5108447;27;20178;-84
2023/06/22 04:29:43;;;;;;;63.80;43.33;;;18.10;99.90;;;;;;5114079;28;20226;-84
2023/06/22 04:32:09;;;;;;;69.78;45.75;;;18.10;99.90;;;;;;5097899;28;20236;-85
2023/06/22 04:34:35;;;;;;;71.18;45.53;;;18.20;99.90;;;;;;5111102;28;20177;-86
2023/06/22 04:37:01;;;;;;;68.25;45.38;;;18.20;99.90;;;;;;5097159;27;20185;-87
2023/06/22 04:39:27;;;;;;;67.45;46.17;;;18.20;99.90;;;;;;5071954;28;20635;-85
2023/06/22 04:41:53;;;;;;;70.07;45.30;;;18.20;99.90;;;;;;5075892;28;20677;-85
2023/06/22 04:44:25;;;;;;;73.43;45.88;;;18.20;99.90;;;;;;5103833;28;20189;-86
2023/06/22 04:46:59;;;;;;;67.10;45.22;;;18.20;99.90;;;;;;5105729;27;20194;-87
2023/06/22 04:49:32;;;;;;;70.30;46.60;;;18.20;99.90;;;;;;5096226;27;20181;-86
2023/06/22 04:51:59;;;;;;;66.07;46.70;;;18.20;99.90;;;;;;5060497;28;20180;-86
2023/06/22 04:54:25;;;;;;;69.18;47.08;;;18.30;99.90;;;;;;5093180;28;20192;-86
2023/06/22 04:56:56;;;;;;;67.00;46.65;;;18.30;99.90;;;;;;5109607;28;20177;-85
2023/06/22 04:59:28;;;;;;;61.35;43.67;;;18.30;99.90;;;;;;5109934;28;20293;-85
2023/06/22 05:01:54;;;;;;;61.78;44.38;;;18.40;99.90;;;;;;5102183;28;20182;-86
2023/06/22 05:04:23;;;;;;;64.35;45.58;;;18.40;99.90;;;;;;5060155;28;20189;-86
2023/06/22 05:06:49;;;;;;;64.00;46.55;;;18.40;99.90;;;;;;5096512;28;20215;-85
2023/06/22 05:09:14;;;;;;;63.20;45.08;;;18.50;99.90;;;;;;5106683;27;20282;-83
2023/06/22 05:11:40;;;;;;;67.90;47.13;;;18.50;99.90;;;;;;5092183;28;20618;-84
2023/06/22 05:14:07;;;;;;;64.20;45.95;;;18.50;99.90;;;;;;5093861;28;20181;-87
2023/06/22 05:16:33;;;;;;;64.13;45.95;;;18.60;99.90;;;;;;5104752;28;20235;-84
2023/06/22 05:18:59;;;;;;;59.70;43.50;;;18.60;99.90;;;;;;5091176;28;20210;-83
2023/06/22 05:21:27;;;;;;;59.33;43.58;;;18.60;99.90;;;;;;5103592;27;20264;-85
2023/06/22 05:23:54;;;;;;;60.20;43.28;;;18.60;99.90;;;;;;5107839;27;20205;-83
2023/06/22 05:26:20;;;;;;;57.60;43.10;;;18.70;99.90;;;;;;5092926;28;20200;-83
2023/06/22 05:28:47;;;;;;;62.88;43.80;;;18.80;99.90;;;;;;5091393;28;20273;-83
2023/06/22 05:31:14;;;;;;;59.85;43.63;;;18.80;99.90;;;;;;5093168;28;20186;-83
2023/06/22 05:33:41;;;;;;;57.22;41.95;;;18.90;99.90;;;;;;5099493;28;20617;-84
2023/06/22 05:36:08;;;;;;;59.65;42.65;;;18.90;99.90;;;;;;5102029;28;20281;-84
2023/06/22 05:38:34;;;;;;;59.50;41.53;;;19.00;99.90;;;;;;5093245;28;20214;-84
2023/06/22 05:41:00;;;;;;;57.00;41.38;;;19.00;99.90;;;;;;5106285;28;20327;-84
2023/06/22 05:43:26;;;;;;;61.22;42.55;;;19.10;99.90;;;;;;5093705;28;20283;-84
2023/06/22 05:45:51;;;;;;;54.63;39.13;;;19.10;99.90;;;;;;5091998;27;20608;-84
2023/06/22 05:48:17;;;;;;;51.03;39.15;;;19.20;99.90;;;;;;5106542;28;20190;-84
2023/06/22 05:50:43;;;;;;;49.13;37.28;;;19.20;99.90;;;;;;5081474;28;20269;-83
2023/06/22 05:53:09;;;;;;;53.75;38.90;;;19.40;99.90;;;;;;5083143;28;20199;-84
2023/06/22 05:55:35;;;;;;;55.72;37.72;;;19.40;99.90;;;;;;5099630;27;20239;-83
2023/06/22 05:58:00;;;;;;;55.08;37.80;;;19.50;99.90;;;;;;5088382;28;20529;-83
2023/06/22 06:00:26;;;;;;;53.92;36.97;;;19.50;99.90;;;;;;5097993;27;20185;-83
2023/06/22 06:02:52;;;;;;;49.03;37.13;;;19.60;99.90;;;;;;5096928;27;20271;-86
2023/06/22 06:05:19;;;;;;;50.97;37.63;;;19.60;99.90;;;;;;5105488;28;20185;-83
2023/06/22 06:07:46;;;;;;;42.35;34.28;;;19.60;99.90;;;;;;5102850;27;20189;-83
2023/06/22 06:10:12;;;;;;;46.72;34.20;;;19.70;99.90;;;;;;5111056;28;20621;-83
2023/06/22 06:12:38;;;;;;;41.10;30.67;;;19.80;99.90;;;;;;5100302;28;20178;-83
2023/06/22 06:15:05;;;;;;;47.35;32.45;;;19.90;99.90;;;;;;5100852;28;20212;-82
2023/06/22 06:17:31;;;;;;;39.60;30.48;;;19.90;99.90;;;;;;5092261;28;20210;-85
2023/06/22 06:19:58;;;;;;;41.17;30.85;;;20.00;99.90;;;;;;5102013;28;20188;-84
2023/06/22 06:22:24;;;;;;;41.47;29.15;;;20.10;99.90;;;;;;5107968;28;20197;-82
2023/06/22 06:24:50;;;;;;;42.15;27.80;;;20.10;99.90;;;;;;5074580;28;20177;-82
2023/06/22 06:27:19;;;;;;;35.92;28.75;;;20.20;99.90;;;;;;5110970;28;20533;-82
2023/06/22 06:29:48;;;;;;;41.42;30.80;;;20.30;99.90;;;;;;5110942;28;20175;-82
2023/06/22 06:32:15;;;;;;;36.17;29.27;;;20.30;99.90;;;;;;5101277;28;20174;-85
2023/06/22 06:34:40;;;;;;;35.78;26.63;;;20.40;99.90;;;;;;5102375;28;20211;-83
2023/06/22 06:37:06;;;;;;;33.38;25.25;;;20.40;99.90;;;;;;5093122;28;20174;-84
2023/06/22 06:39:32;;;;;;;32.25;24.73;;;20.50;99.90;;;;;;5104232;28;20220;-85
2023/06/22 06:41:58;;;;;;;37.20;25.75;;;20.60;99.90;;;;;;5091101;28;20286;-84
2023/06/22 06:44:23;;;;;;;36.33;24.77;;;20.60;99.90;;;;;;5104342;28;20264;-82
2023/06/22 06:46:50;;;;;;;35.63;26.08;;;20.70;99.90;;;;;;5094366;28;20290;-82
2023/06/22 06:49:15;;;;;;;37.15;25.92;;;20.70;99.90;;;;;;5111857;28;20208;-82
2023/06/22 06:51:41;;;;;;;32.33;23.90;;;20.80;99.90;;;;;;5110661;28;20662;-83
2023/06/22 06:54:07;;;;;;;34.85;24.52;;;20.90;99.90;;;;;;5104878;28;20233;-84
2023/06/22 06:56:33;;;;;;;30.70;23.58;;;20.90;99.90;;;;;;5108010;28;20181;-84
2023/06/22 06:58:59;;;;;;;27.30;21.00;;;21.00;99.90;;;;;;5091233;28;20255;-84
2023/06/22 07:01:24;;;;;;;28.20;20.98;;;21.10;99.90;;;;;;5090084;28;20173;-84
2023/06/22 07:03:50;;;;;;;27.92;21.58;;;21.20;99.90;;;;;;5091934;28;20268;-83
2023/06/22 07:06:16;;;;;;;28.58;20.25;;;21.20;99.90;;;;;;5099190;28;20299;-83
2023/06/22 07:08:42;;;;;;;28.67;21.00;;;21.30;99.90;;;;;;5090619;28;20253;-83
2023/06/22 07:11:08;;;;;;;27.85;20.13;;;21.30;99.90;;;;;;5058422;28;20185;-84
2023/06/22 07:13:34;;;;;;;30.20;21.73;;;21.40;99.90;;;;;;5098152;28;20288;-85
2023/06/22 07:16:00;;;;;;;31.85;23.17;;;21.50;99.90;;;;;;5093464;28;20276;-84
2023/06/22 07:18:26;;;;;;;27.23;21.48;;;21.50;99.90;;;;;;5073984;28;20210;-85
2023/06/22 07:20:52;;;;;;;28.60;22.23;;;21.60;99.90;;;;;;5061294;28;20626;-86
2023/06/22 07:23:18;;;;;;;31.73;23.67;;;21.70;99.90;;;;;;5093847;28;20182;-84
2023/06/22 07:25:44;;;;;;;28.73;21.25;;;21.70;99.90;;;;;;5091140;28;20702;-83
2023/06/22 07:28:09;;;;;;;28.77;20.65;;;21.80;99.90;;;;;;5106137;28;20186;-83
2023/06/22 07:30:35;;;;;;;30.48;20.27;;;21.80;99.90;;;;;;5090365;28;20696;-84
2023/06/22 07:33:08;;;;;;;23.20;16.83;;;21.90;99.90;;;;;;5105934;28;20185;-83
2023/06/22 07:35:33;;;;;;;22.17;16.90;;;22.00;99.90;;;;;;5111152;28;20200;-85
2023/06/22 07:37:59;;;;;;;29.80;19.35;;;22.10;99.90;;;;;;5076440;28;20217;-85
2023/06/22 07:40:25;;;;;;;27.33;17.63;;;22.20;99.90;;;;;;5112472;28;20260;-86
2023/06/22 07:42:52;;;;;;;20.77;15.32;;;22.30;99.90;;;;;;5101399;27;20523;-85
2023/06/22 07:45:18;;;;;;;20.42;14.48;;;22.40;99.90;;;;;;5093216;28;20284;-85
2023/06/22 07:47:43;;;;;;;26.05;19.17;;;22.50;99.90;;;;;;5093767;28;20235;-86
2023/06/22 07:50:10;;;;;;;28.38;19.60;;;22.60;99.90;;;;;;5096758;28;20270;-84
2023/06/22 07:52:36;;;;;;;22.35;16.55;;;22.70;99.90;;;;;;5110681;28;20613;-84
2023/06/22 07:55:02;;;;;;;22.77;15.25;;;22.80;99.90;;;;;;5076100;28;20182;-84
2023/06/22 07:57:33;;;;;;;16.92;12.80;;;22.80;99.90;;;;;;5095471;28;20174;-83
2023/06/22 08:00:15;;;;;;;19.50;13.25;;;22.90;99.90;;;;;;5094783;28;20174;-84
2023/06/22 08:02:44;;;;;;;20.02;13.55;;;23.00;99.90;;;;;;5097842;27;20281;-84
2023/06/22 08:05:11;;;;;;;15.38;12.15;;;23.00;99.90;;;;;;5114212;28;20206;-84
2023/06/22 08:07:38;;;;;;;18.23;13.10;;;23.10;99.90;;;;;;5097203;28;20209;-83
2023/06/22 08:10:05;;;;;;;16.40;12.90;;;23.20;99.90;;;;;;5094985;27;20528;-82
2023/06/22 08:12:31;;;;;;;19.58;14.27;;;23.20;99.90;;;;;;5078355;28;20186;-85
2023/06/22 08:14:57;;;;;;;16.92;12.45;;;23.30;99.90;;;;;;5103911;28;20219;-84
2023/06/22 08:17:24;;;;;;;18.83;12.98;;;23.40;99.90;;;;;;5115451;28;20178;-84
2023/06/22 08:19:50;;;;;;;18.35;13.27;;;23.40;99.90;;;;;;5112994;28;20253;-84
2023/06/22 08:22:16;;;;;;;15.30;10.90;;;23.40;99.90;;;;;;5114187;28;20629;-85
2023/06/22 08:24:42;;;;;;;13.55;10.07;;;23.40;99.90;;;;;;5101785;28;20197;-85
2023/06/22 08:27:09;;;;;;;12.45;10.35;;;23.50;99.90;;;;;;5101613;28;20614;-84
2023/06/22 08:29:36;;;;;;;16.38;10.65;;;23.50;99.90;;;;;;5114424;28;20313;-84
2023/06/22 08:32:03;;;;;;;13.25;9.15;;;23.60;99.90;;;;;;5107491;27;20195;-83
2023/06/22 08:34:28;;;;;;;13.70;9.07;;;23.70;99.90;;;;;;5120441;27;20195;-85
2023/06/22 08:36:54;;;;;;;13.13;8.35;;;23.70;99.90;;;;;;5079686;28;20181;-84
2023/06/22 08:39:20;;;;;;;12.07;9.10;;;23.80;99.90;;;;;;5093001;28;20296;-84
2023/06/22 08:41:47;;;;;;;11.38;8.38;;;23.90;99.90;;;;;;5094215;28;20531;-85
2023/06/22 08:44:13;;;;;;;12.60;9.80;;;24.00;99.90;;;;;;5103204;27;20198;-84
2023/06/22 08:46:40;;;;;;;15.63;8.63;;;24.00;99.90;;;;;;5094976;28;20252;-84
2023/06/22 08:49:06;;;;;;;13.10;8.50;;;24.00;99.90;;;;;;5097058;28;20258;-85
2023/06/22 08:51:32;;;;;;;11.63;9.35;;;24.10;99.90;;;;;;5095346;28;20482;-85
2023/06/22 08:53:58;;;;;;;12.95;9.40;;;24.20;99.90;;;;;;5102350;28;20178;-84
2023/06/22 08:56:24;;;;;;;14.68;9.15;;;24.20;99.90;;;;;;5100320;28;20189;-85
2023/06/22 08:58:49;;;;;;;18.23;9.88;;;24.30;99.90;;;;;;5108391;28;20695;-85
2023/06/22 09:01:15;;;;;;;13.88;9.73;;;24.40;99.90;;;;;;5096478;28;20184;-85
2023/06/22 09:03:41;;;;;;;13.82;9.65;;;24.50;99.90;;;;;;5105640;28;20249;-86
2023/06/22 09:06:09;;;;;;;17.00;9.73;;;24.70;99.90;;;;;;5098295;28;20181;-85
2023/06/22 09:08:35;;;;;;;10.38;8.27;;;24.80;99.90;;;;;;5115057;28;20181;-87
2023/06/22 09:11:01;;;;;;;13.45;8.45;;;24.80;99.90;;;;;;5106118;28;20184;-87
2023/06/22 09:13:30;;;;;;;11.95;9.48;;;24.90;99.90;;;;;;5097458;28;20326;-85
2023/06/22 09:15:55;;;;;;;20.35;10.25;;;25.00;99.90;;;;;;5108770;28;20177;-86
2023/06/22 09:18:21;;;;;;;18.92;10.77;;;25.00;99.90;;;;;;5115676;28;20214;-87
2023/06/22 09:20:47;;;;;;;18.00;10.02;;;25.10;99.90;;;;;;5114367;28;20184;-86
2023/06/22 09:23:13;;;;;;;12.48;8.23;;;25.20;99.90;;;;;;5091268;28;20653;-86
2023/06/22 09:25:40;;;;;;;8.63;7.20;;;25.20;99.90;;;;;;5098318;28;20185;-87
2023/06/22 09:28:06;;;;;;;11.48;8.07;;;25.30;99.90;;;;;;5095066;28;20193;-86
2023/06/22 09:30:32;;;;;;;11.00;7.85;;;25.40;99.90;;;;;;5080500;28;20202;-86
2023/06/22 09:32:57;;;;;;;11.20;7.13;;;25.50;99.90;;;;;;5103870;28;20180;-87
2023/06/22 09:35:23;;;;;;;12.70;8.27;;;25.60;99.90;;;;;;5105426;28;20194;-87
2023/06/22 09:37:49;;;;;;;10.95;7.25;;;25.70;99.90;;;;;;5111753;27;20284;-86
2023/06/22 09:40:16;;;;;;;11.82;8.07;;;25.90;99.90;;;;;;5099415;27;20189;-86
2023/06/22 09:42:42;;;;;;;10.25;7.50;;;26.00;99.90;;;;;;5105140;27;20228;-86
2023/06/22 09:45:09;;;;;;;12.27;9.73;;;26.10;99.90;;;;;;5106934;27;20280;-87
2023/06/22 09:47:35;;;;;;;14.57;8.65;;;26.20;99.70;;;;;;5104838;27;20170;-84
2023/06/22 09:50:02;;;;;;;12.77;9.55;;;26.30;99.40;;;;;;5106787;28;20182;-86
2023/06/22 09:52:27;;;;;;;11.35;9.00;;;26.30;99.00;;;;;;5104069;28;20203;-87
2023/06/22 09:54:53;;;;;;;12.82;8.45;;;26.30;98.80;;;;;;5098569;28;20182;-87
2023/06/22 09:57:19;;;;;;;12.93;9.55;;;26.20;98.80;;;;;;5093634;28;20170;-87
2023/06/22 09:59:45;;;;;;;15.68;8.50;;;26.30;98.70;;;;;;5077780;28;20216;-87
2023/06/22 10:02:14;;;;;;;10.32;7.03;;;26.30;98.70;;;;;;5116160;28;20251;-87
2023/06/22 10:04:40;;;;;;;12.77;8.82;;;26.40;98.60;;;;;;5094027;28;20272;-86
2023/06/22 10:07:06;;;;;;;12.02;8.73;;;26.50;98.10;;;;;;5112837;28;20188;-86
2023/06/22 10:09:32;;;;;;;16.42;10.60;;;26.60;97.90;;;;;;5114432;28;20272;-86
2023/06/22 10:11:57;;;;;;;13.35;9.20;;;26.60;97.50;;;;;;5096243;28;20181;-86
2023/06/22 10:14:24;;;;;;;12.00;8.00;;;26.60;97.40;;;;;;5100700;28;20234;-86
2023/06/22 10:16:52;;;;;;;12.05;9.20;;;26.70;97.40;;;;;;5075339;28;20587;-86
2023/06/22 10:19:18;;;;;;;13.05;9.15;;;26.80;97.20;;;;;;5074438;28;20221;-86
2023/06/22 10:21:44;;;;;;;14.43;8.95;;;26.90;96.90;;;;;;5097749;28;20223;-87
2023/06/22 10:24:09;;;;;;;13.73;8.50;;;26.90;96.50;;;;;;5093808;28;20630;-86
2023/06/22 10:26:36;;;;;;;13.25;8.82;;;27.00;96.10;;;;;;5092576;28;20197;-86
2023/06/22 10:29:02;;;;;;;12.40;9.30;;;27.00;95.90;;;;;;5076566;28;20188;-86
2023/06/22 10:31:28;;;;;;;12.70;8.30;;;27.10;95.80;;;;;;5097495;28;20180;-86
2023/06/22 10:33:55;;;;;;;14.10;8.88;;;27.10;95.70;;;;;;5095109;28;20196;-86
2023/06/22 10:36:22;;;;;;;11.38;7.63;;;27.10;95.90;;;;;;5113461;28;20276;-87
2023/06/22 10:38:48;;;;;;;10.35;8.23;;;27.10;95.60;;;;;;5113160;28;20249;-86
2023/06/22 10:41:14;;;;;;;13.40;7.93;;;27.10;95.40;;;;;;5110657;28;20275;-86
2023/06/22 10:43:40;;;;;;;11.40;7.97;;;27.10;95.40;;;;;;5104830;27;20177;-86
2023/06/22 10:46:07;;;;;;;13.02;7.22;;;27.20;95.10;;;;;;5110925;28;20207;-86
2023/06/22 10:48:33;;;;;;;10.75;7.38;;;27.30;95.20;;;;;;5113706;28;20175;-86
2023/06/22 10:50:59;;;;;;;12.32;8.13;;;27.40;95.00;;;;;;5114416;28;20612;-86
2023/06/22 10:53:25;;;;;;;12.57;8.43;;;27.50;94.80;;;;;;5096925;28;20172;-87
2023/06/22 10:55:52;;;;;;;11.60;7.25;;;27.60;94.40;;;;;;5106453;28;20189;-86
2023/06/22 10:58:19;;;;;;;8.57;6.53;;;27.50;94.20;;;;;;5094226;28;20209;-86
2023/06/22 11:00:45;;;;;;;14.00;8.40;;;27.60;94.40;;;;;;5092267;28;20238;-87
2023/06/22 11:03:10;;;;;;;12.65;8.75;;;27.60;94.10;;;;;;5093624;28;20303;-86
2023/06/22 11:05:36;;;;;;;12.48;7.03;;;27.60;93.90;;;;;;5092691;28;20225;-86
2023/06/22 11:08:02;;;;;;;11.75;7.70;;;27.60;94.00;;;;;;5100999;28;20194;-87
2023/06/22 11:10:28;;;;;;;9.90;7.03;;;27.60;93.90;;;;;;5100038;28;20617;-87
2023/06/22 11:12:55;;;;;;;13.25;8.93;;;27.70;93.70;;;;;;5078869;28;20226;-86
2023/06/22 11:15:21;;;;;;;13.77;7.97;;;27.80;93.50;;;;;;5104055;28;20193;-87
2023/06/22 11:17:47;;;;;;;10.52;8.52;;;27.80;93.30;;;;;;5113932;28;20212;-86
2023/06/22 11:20:12;;;;;;;9.05;7.43;;;27.90;93.30;;;;;;5116890;28;20255;-86
2023/06/22 11:22:42;;;;;;;11.77;8.93;;;28.00;93.20;;;;;;5117104;28;20593;-85
2023/06/22 11:25:08;;;;;;;12.05;7.40;;;28.00;92.90;;;;;;5099108;28;20199;-88
2023/06/22 11:27:34;;;;;;;10.77;7.90;;;28.00;92.90;;;;;;5115718;28;20165;-88
2023/06/22 11:30:00;;;;;;;10.50;8.18;;;27.90;92.60;;;;;;5085945;28;20173;-88
2023/06/22 11:32:26;;;;;;;8.45;6.63;;;27.90;92.30;;;;;;5112032;28;20513;-87
2023/06/22 11:34:52;;;;;;;10.77;7.05;;;27.80;92.30;;;;;;5098872;28;20241;-87
2023/06/22 11:37:17;;;;;;;9.73;7.15;;;27.90;92.50;;;;;;5115806;28;20177;-86
2023/06/22 11:39:43;;;;;;;10.90;7.35;;;27.90;92.50;;;;;;5105177;28;20300;-86
2023/06/22 11:42:10;;;;;;;9.82;7.38;;;27.90;92.20;;;;;;5095846;28;20231;-86
2023/06/22 11:44:36;;;;;;;10.07;6.53;;;27.90;91.90;;;;;;5097089;27;20284;-86
2023/06/22 11:47:03;;;;;;;14.68;7.13;;;27.90;91.90;;;;;;5105575;27;20234;-88
2023/06/22 11:49:30;;;;;;;10.52;7.93;;;28.00;92.10;;;;;;5104219;27;20200;-88
2023/06/22 11:51:56;;;;;;;12.50;7.43;;;28.00;92.20;;;;;;5104272;27;20528;-88
2023/06/22 11:54:22;;;;;;;13.10;7.43;;;28.10;92.30;;;;;;5090528;28;20188;-88
2023/06/22 11:56:47;;;;;;;14.10;7.20;;;28.10;92.40;;;;;;5107541;28;20199;-88
2023/06/22 11:59:13;;;;;;;13.45;7.40;;;28.10;92.40;;;;;;5111794;27;20751;-87
2023/06/22 12:01:39;;;;;;;12.68;7.55;;;28.20;92.30;;;;;;5114203;28;20271;-88
2023/06/22 12:04:05;;;;;;;10.50;7.57;;;28.10;92.20;;;;;;5112767;27;20182;-88
2023/06/22 12:06:33;;;;;;;8.90;6.18;;;28.10;92.20;;;;;;5124937;27;20260;-88
2023/06/22 12:08:59;;;;;;;11.40;7.15;;;28.10;92.40;;;;;;5100366;27;20186;-88
2023/06/22 12:11:24;;;;;;;14.07;7.53;;;28.00;92.30;;;;;;5079816;28;20246;-87
2023/06/22 12:13:50;;;;;;;9.48;6.55;;;27.90;92.20;;;;;;5107989;27;20209;-88
2023/06/22 12:16:16;;;;;;;9.60;6.43;;;28.00;92.30;;;;;;5098150;28;20226;-88
2023/06/22 12:18:42;;;;;;;9.85;6.75;;;27.90;92.40;;;;;;5085087;28;20534;-89
2023/06/22 12:21:07;;;;;;;10.10;6.88;;;27.80;92.40;;;;;;5087260;28;20193;-88
2023/06/22 12:23:33;;;;;;;12.02;7.50;;;27.80;92.40;;;;;;5104919;27;20634;-88
2023/06/22 12:26:01;;;;;;;8.25;6.28;;;27.80;92.50;;;;;;5077335;28;20188;-89
2023/06/22 12:28:27;;;;;;;11.50;6.22;;;27.80;92.60;;;;;;5097407;27;20280;-87
2023/06/22 12:30:52;;;;;;;10.65;6.80;;;27.70;92.60;;;;;;5071247;28;20189;-88